Darstellungsparameter: Aktuell verwendete Einstellungen:
Skalierung der Graphiken ... ?
xyx+y,   Skalierungsfaktor:      Skalierung: Modus: x, Faktor: 1
Darstellungszeitraum ... ?
Vom - - bis: - -   Zeitraum: 12.05.2021 - 12.05.2021
Min/Max/Avg-Anzeige ... ?
Zeige MMA aktuell
Zeige MMA Monat
Zeige MMA alles
Zeige --A aktuell
Zeige --A Monat
Zeige --A alles
Keine MMA-Anzeige
MMA:
Minimum Maximum Average (ber die Originaldaten)
MMA-Basis: 14.07.2019 - 16.08.2019
Quicknavigation für Darstellung... ?
Tage:      1T, 2T, 3T, 5T -1T -2T -3T -5T +1T +2T +3T +5T
Wochen: 1W, 2W, 3W -1W -2W -3W +1W +2W +3W
Monate: 1M, 3M, 6M -1M -3M -6M +1M +3M +6M
Jahre:    1J, 3J, 5J, 10J -1J -3J -5J -10J +1J +3J +5J +10J
Nutze für die Darstellung ... ?
Originaldaten oder Mittelwerte auf ...
Stundenbasis Tagesbasis Wochenbasis
Monatsbasis Jahresbasis      Datenbasis: Original-Daten
Darstellen als:
Statistik (Auto) Statistik J:M      Darstellung:

Der gewünschte Datumsbereich war nicht gültig/verfügbar und wurde korrigiert....
Das angegebene Enddatum (15.08.2024 23:59:59) liegt in der Zukunft.
Das angegebene Startdatum (16.05.2024 00:00:00) liegt in der Zukunft.


Zur Graphik,    zurück zur Übersicht aller Sensoren.
 
Tabellarische Datenbersicht: ?
 
Sensor: Nr:Datum:Temp:Feuchte:Taupunkt:
Aussen-T/F 1 12-05-2021 02:00:00 11.6 C 96 % 10.98 C
2 12-05-2021 02:05:00 11.6 C 96 % 10.98 C
3 12-05-2021 02:10:00 11.6 C 96 % 10.98 C
4 12-05-2021 02:15:00 11.5 C 96 % 10.88 C
5 12-05-2021 02:20:00 11.5 C 96 % 10.88 C
6 12-05-2021 02:25:00 11.4 C 96 % 10.79 C
7 12-05-2021 02:30:00 11.4 C 96 % 10.79 C
8 12-05-2021 02:35:00 11.3 C 96 % 10.69 C
9 12-05-2021 02:40:00 11.3 C 96 % 10.69 C
10 12-05-2021 02:45:00 11.3 C 96 % 10.69 C
11 12-05-2021 02:50:00 11.2 C 96 % 10.59 C
12 12-05-2021 02:55:00 11.2 C 96 % 10.59 C
13 12-05-2021 03:00:00 11.1 C 96 % 10.49 C
14 12-05-2021 03:05:00 11.1 C 96 % 10.49 C
15 12-05-2021 03:10:00 11.1 C 96 % 10.49 C
16 12-05-2021 03:15:00 11 C 96 % 10.39 C
17 12-05-2021 03:20:00 11 C 96 % 10.39 C
18 12-05-2021 03:25:00 10.9 C 96 % 10.29 C
19 12-05-2021 03:30:00 10.9 C 96 % 10.29 C
20 12-05-2021 03:35:00 10.9 C 96 % 10.29 C
21 12-05-2021 03:40:00 10.9 C 96 % 10.29 C
22 12-05-2021 03:45:00 11 C 96 % 10.39 C
23 12-05-2021 03:50:00 11.1 C 96 % 10.49 C
24 12-05-2021 03:55:00 11.1 C 96 % 10.49 C
25 12-05-2021 04:00:00 11.1 C 96 % 10.49 C
Sensor: Nr:Datum:Temp:Feuchte:Taupunkt:
Aussen-T/F 26 12-05-2021 04:05:00 11.2 C 96 % 10.59 C
27 12-05-2021 04:10:00 11.2 C 96 % 10.59 C
28 12-05-2021 04:15:00 11.1 C 96 % 10.49 C
29 12-05-2021 04:20:00 11.1 C 96 % 10.49 C
30 12-05-2021 04:25:00 11.1 C 96 % 10.49 C
31 12-05-2021 04:30:00 11.1 C 96 % 10.49 C
32 12-05-2021 04:35:00 11.1 C 96 % 10.49 C
33 12-05-2021 04:40:00 11.1 C 96 % 10.49 C
34 12-05-2021 04:45:00 11 C 96 % 10.39 C
35 12-05-2021 04:50:00 11.1 C 96 % 10.49 C
36 12-05-2021 04:55:00 11.1 C 96 % 10.49 C
37 12-05-2021 05:00:00 11.1 C 96 % 10.49 C
38 12-05-2021 05:05:00 11.1 C 96 % 10.49 C
39 12-05-2021 05:10:00 11.1 C 96 % 10.49 C
40 12-05-2021 05:15:00 11.1 C 96 % 10.49 C
41 12-05-2021 05:20:00 11.1 C 96 % 10.49 C
42 12-05-2021 05:25:00 11.1 C 96 % 10.49 C
43 12-05-2021 05:30:00 11.1 C 96 % 10.49 C
44 12-05-2021 05:35:00 11.1 C 96 % 10.49 C
45 12-05-2021 05:40:00 11.1 C 96 % 10.49 C
46 12-05-2021 05:45:00 11.1 C 96 % 10.49 C
47 12-05-2021 05:50:00 11.1 C 96 % 10.49 C
48 12-05-2021 05:55:00 11.1 C 96 % 10.49 C
49 12-05-2021 06:00:00 11 C 96 % 10.39 C
50 12-05-2021 06:05:00 11 C 96 % 10.39 C
Sensor: Nr:Datum:Temp:Feuchte:Taupunkt:
Aussen-T/F 51 12-05-2021 06:10:00 11 C 96 % 10.39 C
52 12-05-2021 06:15:00 11 C 96 % 10.39 C
53 12-05-2021 06:20:00 11 C 96 % 10.39 C
54 12-05-2021 06:25:00 11 C 96 % 10.39 C
55 12-05-2021 06:30:00 11 C 96 % 10.39 C
56 12-05-2021 06:35:00 11 C 96 % 10.39 C
57 12-05-2021 06:40:00 11 C 96 % 10.39 C
58 12-05-2021 06:45:00 11 C 96 % 10.39 C
59 12-05-2021 06:50:00 11 C 96 % 10.39 C
60 12-05-2021 06:55:00 11.1 C 96 % 10.49 C
61 12-05-2021 07:00:00 11.1 C 96 % 10.49 C
62 12-05-2021 07:05:00 11.1 C 95 % 10.33 C
63 12-05-2021 07:10:00 11.1 C 95 % 10.33 C
64 12-05-2021 07:15:00 11.1 C 95 % 10.33 C
65 12-05-2021 07:20:00 11.1 C 95 % 10.33 C
66 12-05-2021 07:25:00 11.1 C 95 % 10.33 C
67 12-05-2021 07:30:00 11 C 95 % 10.23 C
68 12-05-2021 07:35:00 11 C 95 % 10.23 C
69 12-05-2021 07:40:00 11 C 95 % 10.23 C
70 12-05-2021 07:45:00 11.1 C 95 % 10.33 C
71 12-05-2021 07:50:00 11.1 C 95 % 10.33 C
72 12-05-2021 07:55:00 11.3 C 96 % 10.69 C
73 12-05-2021 08:00:00 11.3 C 95 % 10.53 C
74 12-05-2021 08:05:00 11.4 C 95 % 10.63 C
75 12-05-2021 08:10:00 11.6 C 95 % 10.83 C
Sensor: Nr:Datum:Temp:Feuchte:Taupunkt:
Aussen-T/F 76 12-05-2021 08:15:00 11.7 C 95 % 10.93 C
77 12-05-2021 08:20:00 11.8 C 94 % 10.87 C
78 12-05-2021 08:25:00 11.9 C 94 % 10.97 C
79 12-05-2021 08:30:00 12 C 94 % 11.07 C
80 12-05-2021 08:35:00 12.1 C 93 % 11 C
81 12-05-2021 08:40:00 12.2 C 93 % 11.1 C
82 12-05-2021 08:45:00 12.3 C 93 % 11.2 C
83 12-05-2021 08:50:00 12.4 C 93 % 11.3 C
84 12-05-2021 08:55:00 12.4 C 92 % 11.14 C
85 12-05-2021 09:00:00 12.6 C 92 % 11.34 C
86 12-05-2021 09:05:00 12.7 C 92 % 11.43 C
87 12-05-2021 09:10:00 12.7 C 91 % 11.27 C
88 12-05-2021 09:15:00 12.7 C 90 % 11.1 C
89 12-05-2021 09:20:00 12.8 C 90 % 11.2 C
90 12-05-2021 09:25:00 12.9 C 89 % 11.13 C
91 12-05-2021 09:30:00 13 C 89 % 11.23 C
92 12-05-2021 09:35:00 13.2 C 89 % 11.43 C
93 12-05-2021 09:40:00 13.3 C 89 % 11.53 C
94 12-05-2021 09:45:00 13.4 C 89 % 11.63 C
95 12-05-2021 09:50:00 13.6 C 88 % 11.65 C
96 12-05-2021 09:55:00 13.6 C 87 % 11.48 C
97 12-05-2021 10:00:00 13.7 C 87 % 11.58 C
98 12-05-2021 10:05:00 13.9 C 87 % 11.77 C
99 12-05-2021 10:10:00 14 C 87 % 11.87 C
100 12-05-2021 10:15:00 14 C 86 % 11.7 C
Sensor: Nr:Datum:Temp:Feuchte:Taupunkt:
Aussen-T/F 101 12-05-2021 10:20:00 14.1 C 86 % 11.8 C
102 12-05-2021 10:25:00 14.2 C 85 % 11.72 C
103 12-05-2021 10:30:00 14.2 C 86 % 11.89 C
104 12-05-2021 10:35:00 14.2 C 86 % 11.89 C
105 12-05-2021 10:40:00 14.3 C 85 % 11.81 C
106 12-05-2021 10:45:00 14.4 C 84 % 11.73 C
107 12-05-2021 10:50:00 14.4 C 84 % 11.73 C
108 12-05-2021 10:55:00 14.5 C 84 % 11.83 C
109 12-05-2021 11:00:00 14.7 C 83 % 11.85 C
110 12-05-2021 11:05:00 14.7 C 83 % 11.85 C
111 12-05-2021 11:10:00 14.7 C 82 % 11.66 C
112 12-05-2021 11:15:00 14.8 C 83 % 11.94 C
113 12-05-2021 11:20:00 14.9 C 83 % 12.04 C
114 12-05-2021 11:25:00 14.9 C 81 % 11.67 C
115 12-05-2021 11:30:00 14.9 C 81 % 11.67 C
116 12-05-2021 11:35:00 15 C 81 % 11.77 C
117 12-05-2021 11:40:00 15.1 C 82 % 12.05 C
118 12-05-2021 11:45:00 15.1 C 80 % 11.68 C
119 12-05-2021 11:50:00 15.1 C 78 % 11.3 C
120 12-05-2021 11:55:00 15.1 C 81 % 11.87 C
121 12-05-2021 12:00:00 15.2 C 80 % 11.78 C
122 12-05-2021 12:05:00 15.3 C 79 % 11.68 C
123 12-05-2021 12:10:00 15.3 C 77 % 11.3 C
124 12-05-2021 12:15:00 15.2 C 77 % 11.2 C
125 12-05-2021 12:20:00 15.2 C 78 % 11.39 C
Sensor: Nr:Datum:Temp:Feuchte:Taupunkt:
Aussen-T/F 126 12-05-2021 12:25:00 15.2 C 77 % 11.2 C
127 12-05-2021 12:30:00 15.2 C 76 % 11 C
128 12-05-2021 12:35:00 15.2 C 76 % 11 C
129 12-05-2021 12:40:00 15.4 C 74 % 10.79 C
130 12-05-2021 12:45:00 15.4 C 71 % 10.17 C
131 12-05-2021 12:50:00 15.5 C 72 % 10.48 C
132 12-05-2021 12:55:00 15.6 C 70 % 10.15 C
133 12-05-2021 13:00:00 15.6 C 69 % 9.94 C
134 12-05-2021 13:05:00 15.7 C 69 % 10.03 C
135 12-05-2021 13:10:00 15.8 C 68 % 9.91 C
136 12-05-2021 13:15:00 16 C 70 % 10.54 C
137 12-05-2021 13:20:00 16.2 C 69 % 10.51 C
138 12-05-2021 13:25:00 16.3 C 66 % 9.94 C
139 12-05-2021 13:30:00 16.4 C 66 % 10.04 C
140 12-05-2021 13:35:00 16.4 C 64 % 9.58 C
141 12-05-2021 13:40:00 16.5 C 61 % 8.96 C
142 12-05-2021 13:45:00 16.6 C 62 % 9.3 C
143 12-05-2021 13:50:00 16.6 C 65 % 10 C
144 12-05-2021 13:55:00 16.8 C 60 % 9 C
145 12-05-2021 14:00:00 17 C 62 % 9.67 C
146 12-05-2021 14:05:00 17.2 C 64 % 10.34 C
147 12-05-2021 14:10:00 17.2 C 64 % 10.34 C
148 12-05-2021 14:15:00 17.1 C 65 % 10.47 C
149 12-05-2021 14:20:00 16.8 C 65 % 10.19 C
150 12-05-2021 14:25:00 16.7 C 66 % 10.32 C
Sensor: Nr:Datum:Temp:Feuchte:Taupunkt:
Aussen-T/F 151 12-05-2021 14:30:00 16.7 C 66 % 10.32 C
152 12-05-2021 14:35:00 16.8 C 66 % 10.42 C
153 12-05-2021 14:40:00 16.9 C 67 % 10.74 C
154 12-05-2021 14:45:00 16.8 C 67 % 10.64 C
155 12-05-2021 14:50:00 16.6 C 65 % 10 C
156 12-05-2021 14:55:00 16.7 C 64 % 9.86 C
157 12-05-2021 15:00:00 16.8 C 63 % 9.72 C
158 12-05-2021 15:05:00 17.1 C 63 % 10.01 C
159 12-05-2021 15:10:00 17.3 C 63 % 10.2 C
160 12-05-2021 15:15:00 17.6 C 60 % 9.75 C
161 12-05-2021 15:20:00 17.7 C 61 % 10.09 C
162 12-05-2021 15:25:00 17.9 C 58 % 9.53 C
163 12-05-2021 15:30:00 17.9 C 57 % 9.27 C
164 12-05-2021 15:35:00 17.7 C 60 % 9.84 C
165 12-05-2021 15:40:00 17.6 C 58 % 9.25 C
166 12-05-2021 15:45:00 17.5 C 60 % 9.66 C
167 12-05-2021 15:50:00 17.4 C 62 % 10.05 C
168 12-05-2021 15:55:00 17.4 C 61 % 9.81 C
169 12-05-2021 16:00:00 17.4 C 59 % 9.31 C
170 12-05-2021 16:05:00 17.5 C 58 % 9.15 C
171 12-05-2021 16:10:00 17.6 C 60 % 9.75 C
172 12-05-2021 16:15:00 17.6 C 60 % 9.75 C
173 12-05-2021 16:20:00 17.6 C 58 % 9.25 C
174 12-05-2021 16:25:00 17.6 C 58 % 9.25 C
175 12-05-2021 16:30:00 17.5 C 60 % 9.66 C
Sensor: Nr:Datum:Temp:Feuchte:Taupunkt:
Aussen-T/F 176 12-05-2021 16:35:00 17.4 C 60 % 9.56 C
177 12-05-2021 16:40:00 17.4 C 59 % 9.31 C
178 12-05-2021 16:45:00 17.4 C 58 % 9.06 C
179 12-05-2021 16:50:00 17.7 C 59 % 9.59 C
180 12-05-2021 16:55:00 17.8 C 57 % 9.18 C
181 12-05-2021 17:00:00 17.9 C 56 % 9.01 C
182 12-05-2021 17:05:00 18 C 56 % 9.1 C
183 12-05-2021 17:10:00 18.2 C 56 % 9.29 C
184 12-05-2021 17:15:00 18.3 C 58 % 9.9 C
185 12-05-2021 17:20:00 18.3 C 60 % 10.41 C
186 12-05-2021 17:25:00 18.3 C 56 % 9.38 C
187 12-05-2021 17:30:00 18.3 C 58 % 9.9 C
188 12-05-2021 17:35:00 18.3 C 59 % 10.16 C
189 12-05-2021 17:40:00 18.1 C 60 % 10.22 C
190 12-05-2021 17:45:00 17.9 C 60 % 10.03 C
191 12-05-2021 17:50:00 17.9 C 65 % 11.23 C
192 12-05-2021 17:55:00 18.2 C 61 % 10.56 C
193 12-05-2021 18:00:00 18.2 C 61 % 10.56 C
194 12-05-2021 18:05:00 18.3 C 61 % 10.66 C
195 12-05-2021 18:10:00 18.7 C 60 % 10.78 C
196 12-05-2021 18:15:00 18.9 C 59 % 10.72 C
197 12-05-2021 18:20:00 18.8 C 61 % 11.13 C
198 12-05-2021 18:25:00 19.1 C 57 % 10.39 C
199 12-05-2021 18:30:00 19.3 C 57 % 10.58 C
200 12-05-2021 18:35:00 19.4 C 54 % 9.86 C
Sensor: Nr:Datum:Temp:Feuchte:Taupunkt:
Aussen-T/F 201 12-05-2021 18:40:00 19.4 C 57 % 10.67 C
202 12-05-2021 18:45:00 19.5 C 56 % 10.5 C
203 12-05-2021 18:50:00 19.6 C 55 % 10.32 C
204 12-05-2021 18:55:00 19.6 C 55 % 10.32 C
205 12-05-2021 19:00:00 19.4 C 55 % 10.13 C
206 12-05-2021 19:05:00 19.3 C 57 % 10.58 C
207 12-05-2021 19:10:00 19.2 C 56 % 10.22 C
208 12-05-2021 19:15:00 18.9 C 57 % 10.2 C
209 12-05-2021 19:20:00 18.8 C 56 % 9.84 C
210 12-05-2021 19:25:00 18.7 C 58 % 10.28 C
211 12-05-2021 19:30:00 18.8 C 56 % 9.84 C
212 12-05-2021 19:35:00 18.8 C 57 % 10.11 C
213 12-05-2021 19:40:00 18.8 C 55 % 9.58 C
214 12-05-2021 19:45:00 18.7 C 55 % 9.48 C
215 12-05-2021 19:50:00 18.7 C 57 % 10.02 C
216 12-05-2021 19:55:00 18.8 C 56 % 9.84 C
217 12-05-2021 20:00:00 18.6 C 55 % 9.39 C
218 12-05-2021 20:05:00 18.4 C 57 % 9.74 C
219 12-05-2021 20:10:00 18.3 C 59 % 10.16 C
220 12-05-2021 20:15:00 18.2 C 57 % 9.55 C
221 12-05-2021 20:20:00 18.1 C 58 % 9.71 C
222 12-05-2021 20:25:00 17.8 C 58 % 9.43 C
223 12-05-2021 20:30:00 17.7 C 61 % 10.09 C
224 12-05-2021 20:35:00 17.6 C 62 % 10.24 C
225 12-05-2021 20:40:00 17.4 C 65 % 10.76 C
Sensor: Nr:Datum:Temp:Feuchte:Taupunkt:
Aussen-T/F 226 12-05-2021 20:45:00 17.3 C 64 % 10.43 C
227 12-05-2021 20:50:00 17.1 C 67 % 10.93 C
228 12-05-2021 20:55:00 16.9 C 71 % 11.61 C
229 12-05-2021 21:00:00 16.6 C 72 % 11.54 C
230 12-05-2021 21:05:00 16.1 C 72 % 11.06 C
231 12-05-2021 21:10:00 15.6 C 73 % 10.78 C
232 12-05-2021 21:15:00 15.2 C 72 % 10.19 C
233 12-05-2021 21:20:00 14.9 C 72 % 9.9 C
234 12-05-2021 21:25:00 14.7 C 74 % 10.12 C
235 12-05-2021 21:30:00 14.5 C 74 % 9.93 C
236 12-05-2021 21:35:00 14.3 C 76 % 10.13 C
237 12-05-2021 21:40:00 14.2 C 77 % 10.23 C
238 12-05-2021 21:45:00 13.9 C 77 % 9.94 C
239 12-05-2021 21:50:00 13.7 C 78 % 9.94 C
240 12-05-2021 21:55:00 13.5 C 79 % 9.93 C
241 12-05-2021 22:00:00 13.3 C 80 % 9.93 C
242 12-05-2021 22:05:00 13.2 C 81 % 10.01 C
243 12-05-2021 22:10:00 13.1 C 82 % 10.1 C
244 12-05-2021 22:15:00 12.8 C 82 % 9.81 C
245 12-05-2021 22:20:00 12.7 C 83 % 9.89 C
246 12-05-2021 22:25:00 12.4 C 84 % 9.78 C
247 12-05-2021 22:30:00 12.3 C 84 % 9.68 C
248 12-05-2021 22:35:00 12.1 C 85 % 9.66 C
249 12-05-2021 22:40:00 11.9 C 85 % 9.46 C
250 12-05-2021 22:45:00 11.8 C 86 % 9.54 C
Sensor: Nr:Datum:Temp:Feuchte:Taupunkt:
Aussen-T/F 251 12-05-2021 22:50:00 11.7 C 86 % 9.44 C
252 12-05-2021 22:55:00 11.6 C 87 % 9.51 C
253 12-05-2021 23:00:00 11.4 C 87 % 9.32 C
254 12-05-2021 23:05:00 11.3 C 87 % 9.22 C
255 12-05-2021 23:10:00 11.3 C 87 % 9.22 C
256 12-05-2021 23:15:00 11.2 C 88 % 9.29 C
257 12-05-2021 23:20:00 11.1 C 88 % 9.19 C
258 12-05-2021 23:25:00 11 C 88 % 9.09 C
259 12-05-2021 23:30:00 10.9 C 88 % 8.99 C
260 12-05-2021 23:35:00 10.8 C 89 % 9.06 C
261 12-05-2021 23:40:00 10.7 C 89 % 8.96 C
262 12-05-2021 23:45:00 10.7 C 89 % 8.96 C
263 12-05-2021 23:50:00 10.6 C 89 % 8.86 C
264 12-05-2021 23:55:00 10.4 C 89 % 8.67 C

Legende:
   Min
   Max


Maximal/Minimal-Werte vom 14.07.2019 - 16.08.2019

Sensor Min Max Avg
Temp
(Aussen-T/F)
9.8 °C
16-07-2019  05:45:00
40.4 °C
25-07-2019  16:20:00
20.41 °C
Feuchte
(Aussen-T/F)
21 %
24-07-2019  17:10:00
97 %
07-08-2019  03:20:00
73.43 %

Die Daten stammen von einer Davis Vantage Pro 2 Wetter-Station und werden unter Linux mit der Software wview2wettercgi und aufbereitet. Alle Angaben erfolgen ohne Gewähr für ihre Vollständigkeit oder Richtigkeit.
Kontakt: Rainer Krienke krienke@uni-koblenz.de . Meine Webseiten an der Uni Koblenz oder privat.
Version: $Revision: 0.78 $